SCIE 201800Z 24014KT 200V270 9999 SCT020 19/13 Q1016